logo
Search for airport 
image banner adimage banner adimage banner ad
image banner ad

SCLE - La Escondida

Located in Antofagasta, Chile

ICAO - SCLE, IATA -

Data provided by Airmate  

General information

Coordinates: S24°17'40" W69°7'44"
Elevation is 10289 feet MSL.
Magnetic variation is -5° East
View others Airports in Antofagasta

Operational data

Special qualification required
Current time UTC:
Current local time:
Weather at : - ( 0 km )
METAR: PFNO 231706Z AUTO 25004KT 2 1/2SM BR OVC002 14/14 A3012 RMK AO2 VIS 3/4V5 $
View NOTAMs / SUP AIP / TFR affecting this airport [VIEW]
Communications frequencies: [VIEW]

Runways:

RWY identifierQFULength (ft)Width (ft)SurfaceLDA (ft)
10787498PAD
28787498PAD
29286°7932150GRAV
11106°7932150GRAV

Airport contact information

Address: Antofagasta Chile

Satellite view of SCLE